createdAt,value
2019-02-22T00:00:00.810Z,797.43
2019-02-22T00:00:05.137Z,797.4
2019-02-22T00:00:09.501Z,797.4
2019-02-22T00:00:13.793Z,797.42
2019-02-22T00:00:18.191Z,797.45
2019-02-22T00:00:22.483Z,797.38
2019-02-22T00:00:26.770Z,797.44
2019-02-22T00:00:31.089Z,797.42
2019-02-22T00:00:35.387Z,797.41
2019-02-22T00:00:39.689Z,797.38
2019-02-22T00:00:43.886Z,797.42
2019-02-22T00:00:48.182Z,797.4
2019-02-22T00:00:52.400Z,797.41
2019-02-22T00:00:56.691Z,797.36
2019-02-22T00:01:00.981Z,797.35
2019-02-22T00:01:05.189Z,797.31
2019-02-22T00:01:09.483Z,797.35
2019-02-22T00:01:13.774Z,797.39
2019-02-22T00:01:18.162Z,797.39
2019-02-22T00:01:22.538Z,797.41
2019-02-22T00:01:26.846Z,797.35
2019-02-22T00:01:31.057Z,797.36
2019-02-22T00:01:35.379Z,797.36
2019-02-22T00:01:39.677Z,797.41
2019-02-22T00:01:43.884Z,797.4
2019-02-22T00:01:48.081Z,797.4
2019-02-22T00:01:52.486Z,797.42
2019-02-22T00:01:56.675Z,797.39
2019-02-22T00:02:00.884Z,797.43
2019-02-22T00:02:05.182Z,797.44
2019-02-22T00:02:09.507Z,797.42
2019-02-22T00:02:13.810Z,797.43
2019-02-22T00:02:18.096Z,797.41
2019-02-22T00:02:22.386Z,797.41
2019-02-22T00:02:26.676Z,797.41
2019-02-22T00:02:30.973Z,797.42
2019-02-22T00:02:35.265Z,797.43
2019-02-22T00:02:39.490Z,797.44
2019-02-22T00:02:43.785Z,797.44
2019-02-22T00:02:47.992Z,797.43
2019-02-22T00:02:52.288Z,797.44
2019-02-22T00:02:56.585Z,797.44
2019-02-22T00:03:00.775Z,797.46
2019-02-22T00:03:04.969Z,797.47
2019-02-22T00:03:09.346Z,797.49
2019-02-22T00:03:13.539Z,797.46
2019-02-22T00:03:17.725Z,797.51
2019-02-22T00:03:22.029Z,797.5
2019-02-22T00:03:26.321Z,797.52
2019-02-22T00:03:30.520Z,797.51
2019-02-22T00:03:34.810Z,797.53
2019-02-22T00:03:39.142Z,797.51
2019-02-22T00:03:43.438Z,797.5
2019-02-22T00:03:47.733Z,797.49
2019-02-22T00:03:52.019Z,797.49
2019-02-22T00:03:56.315Z,797.52
2019-02-22T00:04:00.647Z,797.51
2019-02-22T00:04:04.940Z,797.51
2019-02-22T00:04:09.233Z,797.54
2019-02-22T00:04:13.520Z,797.51
2019-02-22T00:04:17.766Z,797.48
2019-02-22T00:04:22.058Z,797.5
2019-02-22T00:04:26.251Z,797.47
2019-02-22T00:04:30.576Z,797.54
2019-02-22T00:04:34.898Z,797.58
2019-02-22T00:04:39.186Z,797.51
2019-02-22T00:04:43.518Z,797.55
2019-02-22T00:04:47.807Z,797.53
2019-02-22T00:04:52.005Z,797.55
2019-02-22T00:04:56.389Z,797.57
2019-02-22T00:05:00.723Z,797.57
2019-02-22T00:05:04.940Z,797.54
2019-02-22T00:05:09.299Z,797.54
2019-02-22T00:05:13.609Z,797.54
2019-02-22T00:05:17.901Z,797.55
2019-02-22T00:05:22.218Z,797.5
2019-02-22T00:05:26.518Z,797.52
2019-02-22T00:05:30.823Z,797.48
2019-02-22T00:05:35.108Z,797.47
2019-02-22T00:05:39.306Z,797.48
2019-02-22T00:05:43.680Z,797.51
2019-02-22T00:05:47.972Z,797.5
2019-02-22T00:05:52.165Z,797.53
2019-02-22T00:05:56.469Z,797.51
2019-02-22T00:06:00.775Z,797.49
2019-02-22T00:06:05.106Z,797.53
2019-02-22T00:06:09.403Z,797.55
2019-02-22T00:06:13.710Z,797.53
2019-02-22T00:06:18.011Z,797.54
2019-02-22T00:06:22.329Z,797.52
2019-02-22T00:06:26.636Z,797.54
2019-02-22T00:06:30.951Z,797.54
2019-02-22T00:06:35.256Z,797.52
2019-02-22T00:06:39.557Z,797.54
2019-02-22T00:06:43.863Z,797.52
2019-02-22T00:06:48.251Z,797.53
2019-02-22T00:06:52.599Z,797.53
2019-02-22T00:06:56.900Z,797.56
2019-02-22T00:07:01.194Z,797.52
2019-02-22T00:07:05.409Z,797.56
2019-02-22T00:07:09.726Z,797.48
2019-02-22T00:07:14.030Z,797.52
2019-02-22T00:07:18.408Z,797.49
2019-02-22T00:07:22.699Z,797.51
2019-02-22T00:07:26.998Z,797.5
2019-02-22T00:07:31.296Z,797.49
2019-02-22T00:07:35.593Z,797.52
2019-02-22T00:07:39.721Z,797.48
2019-02-22T00:07:44.027Z,797.46
2019-02-22T00:07:48.313Z,797.47
2019-02-22T00:07:52.607Z,797.51
2019-02-22T00:07:56.982Z,797.5
2019-02-22T00:08:01.292Z,797.48
2019-02-22T00:08:05.493Z,797.47
2019-02-22T00:08:09.781Z,797.49
2019-02-22T00:08:14.076Z,797.42
2019-02-22T00:08:18.374Z,797.45
2019-02-22T00:08:22.675Z,797.48
2019-02-22T00:08:26.966Z,797.49
2019-02-22T00:08:31.222Z,797.44
2019-02-22T00:08:35.539Z,797.42
2019-02-22T00:08:39.830Z,797.42
2019-02-22T00:08:44.120Z,797.41
2019-02-22T00:08:48.321Z,797.4
2019-02-22T00:08:52.619Z,797.4
2019-02-22T00:08:56.982Z,797.38
2019-02-22T00:09:01.278Z,797.38
2019-02-22T00:09:05.580Z,797.36
2019-02-22T00:09:09.920Z,797.38
2019-02-22T00:09:14.115Z,797.37
2019-02-22T00:09:18.408Z,797.38
2019-02-22T00:09:22.703Z,797.34
2019-02-22T00:09:26.993Z,797.38
2019-02-22T00:09:31.281Z,797.35
2019-02-22T00:09:35.569Z,797.35
2019-02-22T00:09:51.429Z,797.32
2019-02-22T00:09:55.736Z,797.22
2019-02-22T00:10:00.107Z,797.21
2019-02-22T00:10:04.577Z,797.24
2019-02-22T00:10:08.783Z,797.2
2019-02-22T00:10:13.013Z,797.21
2019-02-22T00:10:17.223Z,797.22
2019-02-22T00:10:21.524Z,797.24
2019-02-22T00:10:25.739Z,797.24
2019-02-22T00:10:30.056Z,797.17
2019-02-22T00:10:34.353Z,797.18
2019-02-22T00:10:38.661Z,797.18
2019-02-22T00:10:42.921Z,797.23
2019-02-22T00:10:47.280Z,797.21
2019-02-22T00:10:51.574Z,797.17
2019-02-22T00:10:55.903Z,797.19
2019-02-22T00:11:00.103Z,797.18
2019-02-22T00:11:04.398Z,797.18
2019-02-22T00:11:08.583Z,797.18
2019-02-22T00:11:12.906Z,797.16
2019-02-22T00:11:17.191Z,797.15
2019-02-22T00:11:21.508Z,797.18
2019-02-22T00:11:25.802Z,797.15
2019-02-22T00:11:30.096Z,797.11
2019-02-22T00:11:34.392Z,797.13
2019-02-22T00:11:38.696Z,797.14
2019-02-22T00:11:42.991Z,797.15
2019-02-22T00:11:47.294Z,797.1
2019-02-22T00:11:51.579Z,797.09
2019-02-22T00:11:55.870Z,797.05
2019-02-22T00:12:00.176Z,797.11
2019-02-22T00:12:04.562Z,797.09
2019-02-22T00:12:08.771Z,797.07
2019-02-22T00:12:13.088Z,797.03
2019-02-22T00:12:17.393Z,797.01
2019-02-22T00:12:21.693Z,797.01
2019-02-22T00:12:25.887Z,797.06
2019-02-22T00:12:30.179Z,797
2019-02-22T00:12:34.368Z,797.02
2019-02-22T00:12:38.663Z,797.02
2019-02-22T00:12:42.970Z,797.04
2019-02-22T00:12:47.271Z,797.02
2019-02-22T00:12:51.467Z,797.03
2019-02-22T00:12:55.758Z,797
2019-02-22T00:13:00.050Z,797.02
2019-02-22T00:13:04.334Z,796.99
2019-02-22T00:13:08.625Z,797.02
2019-02-22T00:13:12.925Z,796.98
2019-02-22T00:13:17.250Z,796.9
2019-02-22T00:13:21.590Z,796.95
2019-02-22T00:13:25.787Z,796.94
2019-02-22T00:13:30.079Z,796.95
2019-02-22T00:13:34.372Z,796.92
2019-02-22T00:13:38.582Z,796.94
2019-02-22T00:13:42.872Z,796.92
2019-02-22T00:13:47.164Z,796.93
2019-02-22T00:13:51.460Z,796.94
2019-02-22T00:13:55.754Z,796.93
2019-02-22T00:14:00.051Z,796.93
2019-02-22T00:14:04.258Z,796.89
2019-02-22T00:14:08.452Z,796.94
2019-02-22T00:14:12.681Z,796.92
2019-02-22T00:14:16.973Z,796.88
2019-02-22T00:14:21.106Z,796.89
2019-02-22T00:14:25.314Z,796.87
2019-02-22T00:14:29.612Z,796.88
2019-02-22T00:14:33.906Z,796.84
2019-02-22T00:14:38.114Z,796.88
2019-02-22T00:14:42.401Z,796.87
2019-02-22T00:14:46.703Z,796.91
2019-02-22T00:14:51.004Z,796.88
2019-02-22T00:14:55.306Z,796.86
2019-02-22T00:14:59.674Z,796.82
2019-02-22T00:15:04.028Z,796.81
2019-02-22T00:15:08.321Z,796.84
2019-02-22T00:15:12.613Z,796.84
2019-02-22T00:15:16.816Z,796.85
2019-02-22T00:15:21.112Z,796.83
2019-02-22T00:15:25.444Z,796.81
2019-02-22T00:15:29.754Z,796.85
2019-02-22T00:15:36.250Z,796.83
2019-02-22T00:15:40.656Z,796.82
2019-02-22T00:15:44.966Z,796.76
2019-02-22T00:15:49.265Z,796.78
2019-02-22T00:15:53.563Z,796.82
2019-02-22T00:15:57.880Z,796.82
2019-02-22T00:16:02.190Z,796.82
2019-02-22T00:16:06.382Z,796.82
2019-02-22T00:16:10.676Z,796.82
2019-02-22T00:16:14.973Z,796.79
2019-02-22T00:16:19.262Z,796.82
2019-02-22T00:16:23.577Z,796.78
2019-02-22T00:16:27.706Z,796.8
2019-02-22T00:16:34.514Z,796.78
2019-02-22T00:16:38.814Z,796.77
2019-02-22T00:16:43.120Z,796.77
2019-02-22T00:16:47.415Z,796.77
2019-02-22T00:16:51.716Z,796.75
2019-02-22T00:16:56.006Z,796.76
2019-02-22T00:17:00.319Z,796.74
2019-02-22T00:17:04.630Z,796.77
2019-02-22T00:17:08.938Z,796.71
2019-02-22T00:17:13.232Z,796.75
2019-02-22T00:17:17.537Z,796.74
2019-02-22T00:17:21.828Z,796.74
2019-02-22T00:17:26.138Z,796.72
2019-02-22T00:17:30.345Z,796.74
2019-02-22T00:17:34.657Z,796.74
2019-02-22T00:17:38.988Z,796.74
2019-02-22T00:17:43.274Z,796.77
2019-02-22T00:17:47.576Z,796.76
2019-02-22T00:17:51.834Z,796.75
2019-02-22T00:17:56.137Z,796.74
2019-02-22T00:18:00.420Z,796.74
2019-02-22T00:18:04.770Z,796.73
2019-02-22T00:18:08.970Z,796.73
2019-02-22T00:18:13.456Z,796.71
2019-02-22T00:18:17.748Z,796.66
2019-02-22T00:18:21.960Z,796.72
2019-02-22T00:18:26.257Z,796.72
2019-02-22T00:18:30.483Z,796.76
2019-02-22T00:18:34.678Z,796.7
2019-02-22T00:18:38.967Z,796.71
2019-02-22T00:18:43.261Z,796.7
2019-02-22T00:18:47.521Z,796.67
2019-02-22T00:18:51.826Z,796.67
2019-02-22T00:18:56.118Z,796.69
2019-02-22T00:19:00.408Z,796.73
2019-02-22T00:19:04.814Z,796.73
2019-02-22T00:19:09.132Z,796.75
2019-02-22T00:19:13.422Z,796.74
2019-02-22T00:19:17.726Z,796.7
2019-02-22T00:19:22.021Z,796.7
2019-02-22T00:19:26.356Z,796.69
2019-02-22T00:19:30.552Z,796.71
2019-02-22T00:19:34.848Z,796.68
2019-02-22T00:19:39.141Z,796.71
2019-02-22T00:19:43.349Z,796.69
2019-02-22T00:19:50.121Z,796.68
2019-02-22T00:19:54.335Z,796.7
2019-02-22T00:19:58.545Z,796.71
2019-02-22T00:20:02.848Z,796.7
2019-02-22T00:20:07.140Z,796.72
2019-02-22T00:20:11.429Z,796.68
2019-02-22T00:20:15.719Z,796.69
2019-02-22T00:20:20.087Z,796.69
2019-02-22T00:20:24.380Z,796.67
2019-02-22T00:20:28.571Z,796.68
2019-02-22T00:20:32.873Z,796.69
2019-02-22T00:20:37.176Z,796.66
2019-02-22T00:20:44.115Z,796.67
2019-02-22T00:20:48.403Z,796.67
2019-02-22T00:20:52.633Z,796.67
2019-02-22T00:20:56.828Z,796.66
2019-02-22T00:21:01.122Z,796.63
2019-02-22T00:21:05.418Z,796.64
2019-02-22T00:21:09.721Z,796.61
2019-02-22T00:21:14.016Z,796.66
2019-02-22T00:21:18.319Z,796.62
2019-02-22T00:21:22.685Z,796.65
2019-02-22T00:21:26.974Z,796.62
2019-02-22T00:21:31.268Z,796.62
2019-02-22T00:21:35.612Z,796.63
2019-02-22T00:21:39.921Z,796.65
2019-02-22T00:21:44.109Z,796.63
2019-02-22T00:21:48.301Z,796.64
2019-02-22T00:21:52.589Z,796.64
2019-02-22T00:21:56.786Z,796.62
2019-02-22T00:22:01.076Z,796.63
2019-02-22T00:22:05.373Z,796.61
2019-02-22T00:22:09.667Z,796.61
2019-02-22T00:22:13.955Z,796.65
2019-02-22T00:22:18.251Z,796.63
2019-02-22T00:22:22.539Z,796.62
2019-02-22T00:22:26.832Z,796.6
2019-02-22T00:22:31.116Z,796.66
2019-02-22T00:22:35.405Z,796.64
2019-02-22T00:22:39.747Z,796.63
2019-02-22T00:22:44.034Z,796.62
2019-02-22T00:22:48.374Z,796.59
2019-02-22T00:22:52.676Z,796.58
2019-02-22T00:22:56.973Z,796.6
2019-02-22T00:23:01.388Z,796.62
2019-02-22T00:23:05.717Z,796.6
2019-02-22T00:23:10.011Z,796.56
2019-02-22T00:23:14.212Z,796.6
2019-02-22T00:23:18.521Z,796.61
2019-02-22T00:23:22.810Z,796.58
2019-02-22T00:23:27.095Z,796.61
2019-02-22T00:23:31.389Z,796.6
2019-02-22T00:23:35.591Z,796.6
2019-02-22T00:23:39.893Z,796.58
2019-02-22T00:23:44.181Z,796.6
2019-02-22T00:23:48.473Z,796.59
2019-02-22T00:23:52.767Z,796.56
2019-02-22T00:23:56.984Z,796.55
2019-02-22T00:24:01.276Z,796.56
2019-02-22T00:24:05.573Z,796.56
2019-02-22T00:24:09.937Z,796.59
2019-02-22T00:24:14.235Z,796.56
2019-02-22T00:24:18.426Z,796.61
2019-02-22T00:24:22.724Z,796.57
2019-02-22T00:24:27.022Z,796.59
2019-02-22T00:24:31.389Z,796.58
2019-02-22T00:24:35.680Z,796.54
2019-02-22T00:24:40.094Z,796.52
2019-02-22T00:24:44.417Z,796.54
2019-02-22T00:24:48.707Z,796.54
2019-02-22T00:24:53.003Z,796.49
2019-02-22T00:24:57.290Z,796.55
2019-02-22T00:25:01.710Z,796.5
2019-02-22T00:25:06.117Z,796.49
2019-02-22T00:25:10.479Z,796.48
2019-02-22T00:25:14.766Z,796.47
2019-02-22T00:25:19.126Z,796.43
2019-02-22T00:25:23.413Z,796.49
2019-02-22T00:25:27.703Z,796.43
2019-02-22T00:25:32.067Z,796.42
2019-02-22T00:25:36.367Z,796.44
2019-02-22T00:25:40.657Z,796.43
2019-02-22T00:25:44.858Z,796.39
2019-02-22T00:25:49.151Z,796.39
2019-02-22T00:25:53.447Z,796.42
2019-02-22T00:25:57.808Z,796.39
2019-02-22T00:26:02.094Z,796.4
2019-02-22T00:26:06.387Z,796.37
2019-02-22T00:26:13.190Z,796.33
2019-02-22T00:26:17.493Z,796.32
2019-02-22T00:26:21.792Z,796.3
2019-02-22T00:26:25.991Z,796.33
2019-02-22T00:26:30.292Z,796.3
2019-02-22T00:26:34.591Z,796.3
2019-02-22T00:26:38.898Z,796.33
2019-02-22T00:26:43.185Z,796.28
2019-02-22T00:26:47.389Z,796.28
2019-02-22T00:26:51.774Z,796.24
2019-02-22T00:26:56.063Z,796.25
2019-02-22T00:27:00.348Z,796.24
2019-02-22T00:27:04.647Z,796.22
2019-02-22T00:27:08.961Z,796.22
2019-02-22T00:27:13.252Z,796.2
2019-02-22T00:27:17.544Z,796.22
2019-02-22T00:27:21.853Z,796.2
2019-02-22T00:27:26.147Z,796.2
2019-02-22T00:27:30.351Z,796.19
2019-02-22T00:27:34.644Z,796.2
2019-02-22T00:27:38.933Z,796.16
2019-02-22T00:27:43.221Z,796.16
2019-02-22T00:27:47.518Z,796.16
2019-02-22T00:27:51.827Z,796.18
2019-02-22T00:27:56.119Z,796.19
2019-02-22T00:28:00.316Z,796.17
2019-02-22T00:28:04.618Z,796.16
2019-02-22T00:28:08.915Z,796.17
2019-02-22T00:28:13.112Z,796.15
2019-02-22T00:28:17.407Z,796.14
2019-02-22T00:28:21.717Z,796.13
2019-02-22T00:28:25.929Z,796.15
2019-02-22T00:28:30.216Z,796.14
2019-02-22T00:28:34.435Z,796.14
2019-02-22T00:28:38.728Z,796.13
2019-02-22T00:28:43.017Z,796.14
2019-02-22T00:28:47.213Z,796.12
2019-02-22T00:28:51.499Z,796.14
2019-02-22T00:28:55.846Z,796.14
2019-02-22T00:29:00.153Z,796.13
2019-02-22T00:29:04.595Z,796.14
2019-02-22T00:29:08.899Z,796.11
2019-02-22T00:29:13.214Z,796.11
2019-02-22T00:29:17.514Z,796.11
2019-02-22T00:29:21.880Z,796.1
2019-02-22T00:29:26.176Z,796.09
2019-02-22T00:29:30.290Z,796.12
2019-02-22T00:29:34.597Z,796.12
2019-02-22T00:29:38.896Z,796.1
2019-02-22T00:29:43.004Z,796.12
2019-02-22T00:29:47.211Z,796.11
2019-02-22T00:29:51.452Z,796.1
2019-02-22T00:29:55.570Z,796.1
2019-02-22T00:29:59.877Z,796.09
2019-02-22T00:30:04.175Z,796.08
2019-02-22T00:30:08.535Z,796.09
2019-02-22T00:30:12.838Z,796.1
2019-02-22T00:30:17.126Z,796.09
2019-02-22T00:30:23.771Z,796.09
2019-02-22T00:30:27.973Z,796.09
2019-02-22T00:30:32.267Z,796.04
2019-02-22T00:30:36.566Z,796.08
2019-02-22T00:30:40.759Z,796.08
2019-02-22T00:30:45.042Z,796.06
2019-02-22T00:30:49.364Z,796.08
2019-02-22T00:30:53.660Z,796.07
2019-02-22T00:30:57.967Z,796.01
2019-02-22T00:31:02.357Z,796.04
2019-02-22T00:31:06.567Z,796.03
2019-02-22T00:31:10.762Z,796.05
2019-02-22T00:31:15.057Z,796.02
2019-02-22T00:31:19.363Z,796.04
2019-02-22T00:31:23.663Z,796.04
2019-02-22T00:31:27.962Z,796.04
2019-02-22T00:31:32.166Z,796.01
2019-02-22T00:31:36.359Z,796.01
2019-02-22T00:31:40.654Z,796.03
2019-02-22T00:31:44.948Z,796
2019-02-22T00:31:49.243Z,796.03
2019-02-22T00:31:53.534Z,795.98
2019-02-22T00:31:57.828Z,795.96
2019-02-22T00:32:02.143Z,795.94
2019-02-22T00:32:06.453Z,795.92
2019-02-22T00:32:10.754Z,795.93
2019-02-22T00:32:15.057Z,795.92
2019-02-22T00:32:19.343Z,795.89
2019-02-22T00:32:23.634Z,795.84
2019-02-22T00:32:27.927Z,795.9
2019-02-22T00:32:32.120Z,795.88
2019-02-22T00:32:36.412Z,795.86
2019-02-22T00:32:43.295Z,795.89
2019-02-22T00:32:47.597Z,795.85
2019-02-22T00:32:51.893Z,795.88
2019-02-22T00:32:56.190Z,795.89
2019-02-22T00:33:00.532Z,795.87
2019-02-22T00:33:04.892Z,795.9
2019-02-22T00:33:09.180Z,795.86
2019-02-22T00:33:13.472Z,795.89
2019-02-22T00:33:17.779Z,795.87
2019-02-22T00:33:22.093Z,795.87
2019-02-22T00:33:26.380Z,795.89
2019-02-22T00:33:30.591Z,795.88
2019-02-22T00:33:34.953Z,795.89
2019-02-22T00:33:39.252Z,795.84
2019-02-22T00:33:43.552Z,795.85
2019-02-22T00:33:47.852Z,795.84
2019-02-22T00:33:52.145Z,795.85
2019-02-22T00:33:56.347Z,795.82
2019-02-22T00:34:00.598Z,795.83
2019-02-22T00:34:05.194Z,795.8
2019-02-22T00:34:09.819Z,795.82
2019-02-22T00:34:14.365Z,795.82
2019-02-22T00:34:18.953Z,795.79
2019-02-22T00:34:23.589Z,795.79
2019-02-22T00:34:28.464Z,795.8
2019-02-22T00:34:33.033Z,795.78
2019-02-22T00:34:37.553Z,795.78
2019-02-22T00:34:42.105Z,795.82
2019-02-22T00:34:46.553Z,795.79
2019-02-22T00:34:51.152Z,795.76
2019-02-22T00:34:55.623Z,795.79
2019-02-22T00:35:00.129Z,795.78
2019-02-22T00:35:04.880Z,795.72
2019-02-22T00:35:09.491Z,795.74
2019-02-22T00:35:13.984Z,795.74
2019-02-22T00:35:18.412Z,795.72
2019-02-22T00:35:23.080Z,795.77
2019-02-22T00:35:27.551Z,795.76
2019-02-22T00:35:31.935Z,795.78
2019-02-22T00:35:36.607Z,795.75
2019-02-22T00:35:41.054Z,795.74
2019-02-22T00:35:45.528Z,795.74
2019-02-22T00:35:49.951Z,795.73
2019-02-22T00:35:54.638Z,795.75
2019-02-22T00:35:59.202Z,795.72
2019-02-22T00:36:03.747Z,795.73
2019-02-22T00:36:08.537Z,795.75
2019-02-22T00:36:15.593Z,795.77
2019-02-22T00:36:20.240Z,795.74
2019-02-22T00:36:24.903Z,795.75
2019-02-22T00:36:29.609Z,795.72
2019-02-22T00:36:33.923Z,795.75
2019-02-22T00:36:38.670Z,795.72
2019-02-22T00:36:43.414Z,795.73
2019-02-22T00:36:47.927Z,795.69
2019-02-22T00:36:52.357Z,795.72
2019-02-22T00:36:56.999Z,795.72
2019-02-22T00:37:01.583Z,795.7
2019-02-22T00:37:06.469Z,795.69
2019-02-22T00:37:10.903Z,795.68
2019-02-22T00:37:15.516Z,795.72
2019-02-22T00:37:20.425Z,795.68
2019-02-22T00:37:24.868Z,795.66
2019-02-22T00:37:29.509Z,795.72
2019-02-22T00:37:34.004Z,795.71
2019-02-22T00:37:38.513Z,795.67
2019-02-22T00:37:42.857Z,795.7
2019-02-22T00:37:47.056Z,795.69
2019-02-22T00:37:51.353Z,795.7
2019-02-22T00:37:55.645Z,795.68
2019-02-22T00:37:59.935Z,795.68
2019-02-22T00:38:04.228Z,795.66
2019-02-22T00:38:08.512Z,795.63
2019-02-22T00:38:12.818Z,795.67
2019-02-22T00:38:17.015Z,795.69
2019-02-22T00:38:21.306Z,795.66
2019-02-22T00:38:28.675Z,795.65
2019-02-22T00:38:32.974Z,795.67
2019-02-22T00:38:37.169Z,795.69
2019-02-22T00:38:41.457Z,795.65
2019-02-22T00:38:45.765Z,795.67
2019-02-22T00:38:49.763Z,795.64
2019-02-22T00:38:54.055Z,795.67
2019-02-22T00:38:58.353Z,795.7
2019-02-22T00:39:02.679Z,795.65
2019-02-22T00:39:06.972Z,795.65
2019-02-22T00:39:11.268Z,795.67
2019-02-22T00:39:15.559Z,795.64
2019-02-22T00:39:19.856Z,795.63
2019-02-22T00:39:24.147Z,795.6
2019-02-22T00:39:28.440Z,795.62
2019-02-22T00:39:32.653Z,795.59
2019-02-22T00:39:36.852Z,795.63
2019-02-22T00:39:41.149Z,795.65
2019-02-22T00:39:45.437Z,795.65
2019-02-22T00:39:49.632Z,795.64
2019-02-22T00:39:53.923Z,795.62
2019-02-22T00:39:58.111Z,795.63
2019-02-22T00:40:02.585Z,795.6
2019-02-22T00:40:06.895Z,795.59
2019-02-22T00:40:11.189Z,795.62
2019-02-22T00:40:15.482Z,795.62
2019-02-22T00:40:19.785Z,795.61
2019-02-22T00:40:24.007Z,795.6
2019-02-22T00:40:28.304Z,795.61
2019-02-22T00:40:32.500Z,795.63
2019-02-22T00:40:36.697Z,795.62
2019-02-22T00:40:40.991Z,795.6
2019-02-22T00:40:45.280Z,795.61
2019-02-22T00:40:49.566Z,795.58
2019-02-22T00:40:53.855Z,795.58
2019-02-22T00:40:58.248Z,795.59
2019-02-22T00:41:02.740Z,795.59
2019-02-22T00:41:07.037Z,795.58
2019-02-22T00:41:11.334Z,795.58
2019-02-22T00:41:15.702Z,795.57
2019-02-22T00:41:19.994Z,795.57
2019-02-22T00:41:24.281Z,795.59
2019-02-22T00:41:28.499Z,795.56
2019-02-22T00:41:32.786Z,795.53
2019-02-22T00:41:37.147Z,795.55
2019-02-22T00:41:41.438Z,795.52
2019-02-22T00:41:45.648Z,795.53
2019-02-22T00:41:49.740Z,795.53
2019-02-22T00:41:54.111Z,795.51
2019-02-22T00:41:58.397Z,795.47
2019-02-22T00:42:02.839Z,795.46
2019-02-22T00:42:07.204Z,795.49
2019-02-22T00:42:11.420Z,795.49
2019-02-22T00:42:15.718Z,795.45
2019-02-22T00:42:19.934Z,795.5
2019-02-22T00:42:24.250Z,795.47
2019-02-22T00:42:28.550Z,795.46
2019-02-22T00:42:32.844Z,795.47
2019-02-22T00:42:37.143Z,795.48
2019-02-22T00:42:41.332Z,795.46
2019-02-22T00:42:45.632Z,795.48
2019-02-22T00:42:52.517Z,795.45
2019-02-22T00:42:56.721Z,795.47
2019-02-22T00:43:01.079Z,795.45
2019-02-22T00:43:05.497Z,795.4
2019-02-22T00:43:09.827Z,795.45
2019-02-22T00:43:14.122Z,795.46
2019-02-22T00:43:18.410Z,795.41
2019-02-22T00:43:22.716Z,795.44
2019-02-22T00:43:27.010Z,795.42
2019-02-22T00:43:31.331Z,795.42
2019-02-22T00:43:35.648Z,795.44
2019-02-22T00:43:39.938Z,795.44
2019-02-22T00:43:44.244Z,795.46
2019-02-22T00:43:48.573Z,795.45
2019-02-22T00:43:52.770Z,795.46
2019-02-22T00:43:57.061Z,795.42
2019-02-22T00:44:01.365Z,795.47
2019-02-22T00:44:05.676Z,795.45
2019-02-22T00:44:09.978Z,795.46
2019-02-22T00:44:14.362Z,795.46
2019-02-22T00:44:18.688Z,795.43
2019-02-22T00:44:23.001Z,795.44
2019-02-22T00:44:27.221Z,795.43
2019-02-22T00:44:31.427Z,795.46
2019-02-22T00:44:35.718Z,795.45
2019-02-22T00:44:40.024Z,795.47
2019-02-22T00:44:44.329Z,795.44
2019-02-22T00:44:48.620Z,795.42
2019-02-22T00:44:52.921Z,795.4
2019-02-22T00:44:57.208Z,795.43
2019-02-22T00:45:01.501Z,795.44
2019-02-22T00:45:05.799Z,795.43
2019-02-22T00:45:10.090Z,795.43
2019-02-22T00:45:14.418Z,795.44
2019-02-22T00:45:18.706Z,795.41
2019-02-22T00:45:23.007Z,795.46
2019-02-22T00:45:27.310Z,795.47
2019-02-22T00:45:31.607Z,795.49
2019-02-22T00:45:35.912Z,795.43
2019-02-22T00:45:40.213Z,795.5
2019-02-22T00:45:44.507Z,795.49
2019-02-22T00:45:48.870Z,795.44
2019-02-22T00:45:53.164Z,795.45
2019-02-22T00:45:57.368Z,795.45
2019-02-22T00:46:01.655Z,795.45
2019-02-22T00:46:06.051Z,795.52
2019-02-22T00:46:10.241Z,795.47
2019-02-22T00:46:14.529Z,795.46
2019-02-22T00:46:18.868Z,795.51
2019-02-22T00:46:23.154Z,795.47
2019-02-22T00:46:27.257Z,795.48
2019-02-22T00:46:31.445Z,795.5
2019-02-22T00:46:35.781Z,795.49
2019-02-22T00:46:40.071Z,795.49
2019-02-22T00:46:44.270Z,795.48
2019-02-22T00:46:48.620Z,795.51
2019-02-22T00:46:52.908Z,795.49
2019-02-22T00:46:57.277Z,795.51
2019-02-22T00:47:01.473Z,795.54
2019-02-22T00:47:05.784Z,795.5
2019-02-22T00:47:10.074Z,795.53
2019-02-22T00:47:14.369Z,795.52
2019-02-22T00:47:18.661Z,795.53
2019-02-22T00:47:22.987Z,795.55
2019-02-22T00:47:27.181Z,795.58
2019-02-22T00:47:31.470Z,795.56
2019-02-22T00:47:35.676Z,795.58
2019-02-22T00:47:39.867Z,795.56
2019-02-22T00:47:44.154Z,795.61
2019-02-22T00:47:48.445Z,795.6
2019-02-22T00:47:52.748Z,795.59
2019-02-22T00:47:56.950Z,795.58
2019-02-22T00:48:01.142Z,795.6
2019-02-22T00:48:05.485Z,795.64
2019-02-22T00:48:09.776Z,795.61
2019-02-22T00:48:13.968Z,795.64
2019-02-22T00:48:18.279Z,795.65
2019-02-22T00:48:22.578Z,795.64
2019-02-22T00:48:26.880Z,795.63
2019-02-22T00:48:31.176Z,795.67
2019-02-22T00:48:35.467Z,795.64
2019-02-22T00:48:39.770Z,795.68
2019-02-22T00:48:44.071Z,795.63
2019-02-22T00:48:48.357Z,795.64
2019-02-22T00:48:52.654Z,795.64
2019-02-22T00:48:56.940Z,795.68
2019-02-22T00:49:01.132Z,795.67
2019-02-22T00:49:05.422Z,795.72
2019-02-22T00:49:09.711Z,795.71
2019-02-22T00:49:14.009Z,795.69
2019-02-22T00:49:18.293Z,795.72
2019-02-22T00:49:22.591Z,795.74
2019-02-22T00:49:26.884Z,795.72
2019-02-22T00:49:31.186Z,795.74
2019-02-22T00:49:35.477Z,795.75
2019-02-22T00:49:39.805Z,795.69
2019-02-22T00:49:44.100Z,795.72
2019-02-22T00:49:48.386Z,795.72
2019-02-22T00:49:52.678Z,795.74
2019-02-22T00:49:56.968Z,795.73
2019-02-22T00:50:01.269Z,795.79
2019-02-22T00:50:05.606Z,795.78
2019-02-22T00:50:09.822Z,795.8
2019-02-22T00:50:14.206Z,795.84
2019-02-22T00:50:18.502Z,795.85
2019-02-22T00:50:22.800Z,795.87
2019-02-22T00:50:27.087Z,795.82
2019-02-22T00:50:31.300Z,795.8
2019-02-22T00:50:35.609Z,795.87
2019-02-22T00:50:39.808Z,795.88
2019-02-22T00:50:44.026Z,795.89
2019-02-22T00:50:48.313Z,795.91
2019-02-22T00:50:52.524Z,795.9
2019-02-22T00:50:56.721Z,795.88
2019-02-22T00:51:00.918Z,795.9
2019-02-22T00:51:05.212Z,795.94
2019-02-22T00:51:09.418Z,795.91
2019-02-22T00:51:13.763Z,795.92
2019-02-22T00:51:17.965Z,795.96
2019-02-22T00:51:22.276Z,796
2019-02-22T00:51:27.399Z,795.95
2019-02-22T00:51:34.730Z,795.97
2019-02-22T00:51:39.019Z,795.97
2019-02-22T00:51:43.128Z,796.02
2019-02-22T00:51:47.428Z,796.01
2019-02-22T00:51:51.722Z,796.02
2019-02-22T00:51:55.984Z,796.02
2019-02-22T00:52:00.179Z,796.05
2019-02-22T00:52:04.497Z,796.02
2019-02-22T00:52:08.700Z,796.04
2019-02-22T00:52:12.897Z,796.05
2019-02-22T00:52:17.211Z,796.06
2019-02-22T00:52:21.515Z,796.06
2019-02-22T00:52:25.720Z,796.09
2019-02-22T00:52:30.036Z,796.11
2019-02-22T00:52:34.230Z,796.08
2019-02-22T00:52:38.520Z,796.1
2019-02-22T00:52:42.826Z,796.08
2019-02-22T00:52:47.026Z,796.09
2019-02-22T00:52:51.241Z,796.12
2019-02-22T00:52:55.448Z,796.12
2019-02-22T00:52:59.748Z,796.13
2019-02-22T00:53:04.144Z,796.15
2019-02-22T00:53:08.273Z,796.11
2019-02-22T00:53:12.564Z,796.14
2019-02-22T00:53:16.855Z,796.14
2019-02-22T00:53:21.243Z,796.16
2019-02-22T00:53:25.538Z,796.16
2019-02-22T00:53:29.553Z,796.16
2019-02-22T00:53:33.859Z,796.14
2019-02-22T00:53:38.159Z,796.17
2019-02-22T00:53:42.523Z,796.17
2019-02-22T00:53:46.867Z,796.17
2019-02-22T00:53:51.085Z,796.18
2019-02-22T00:53:55.275Z,796.15
2019-02-22T00:53:59.573Z,796.11
2019-02-22T00:54:03.689Z,796.19
2019-02-22T00:54:07.998Z,796.18
2019-02-22T00:54:12.290Z,796.2
2019-02-22T00:54:16.400Z,796.19
2019-02-22T00:54:20.699Z,796.21
2019-02-22T00:54:24.991Z,796.21
2019-02-22T00:54:29.188Z,796.21
2019-02-22T00:54:33.497Z,796.2